Time;durP1;ratioP1;P1;durP2;ratioP2;P2;SDS_P1;SDS_P2;PMS_P1;PMS_P2;Temp;Humidity;BMP_temperature;BMP_pressure;BME280_temperature;BME280_humidity;BME280_pressure;Samples;Min_cycle;Max_cycle;Signal;HPM_P1;HPM_P2
2024/02/27 00:05:40;;;;;;;8.23;4.18;;;4.90;3.30;;;;;;20683172;28;20042;-41
2024/02/27 00:15:41;;;;;;;8.93;4.85;;;4.80;4.40;;;;;;20687584;28;20505;-39
2024/02/27 00:25:42;;;;;;;8.82;4.20;;;4.90;6.10;;;;;;20686544;28;20100;-39
2024/02/27 00:35:42;;;;;;;7.90;3.97;;;4.90;5.90;;;;;;20687059;28;20053;-39
2024/02/27 00:45:46;;;;;;;7.20;4.00;;;4.90;6.90;;;;;;20687346;28;20449;-39
2024/02/27 00:55:46;;;;;;;7.65;3.63;;;4.80;7.70;;;;;;20664721;28;20461;-39
2024/02/27 01:05:47;;;;;;;5.00;3.10;;;4.70;7.70;;;;;;20681239;28;20049;-39
2024/02/27 01:15:48;;;;;;;9.85;3.88;;;4.70;12.20;;;;;;20687439;28;20469;-39
2024/02/27 01:25:48;;;;;;;7.07;3.72;;;4.80;13.50;;;;;;20683247;28;20088;-41
2024/02/27 01:35:49;;;;;;;6.00;3.40;;;4.70;15.00;;;;;;20683619;28;20082;-39
2024/02/27 01:46:20;;;;;;;6.22;3.45;;;4.70;16.80;;;;;;20681474;28;20042;-39
2024/02/27 01:56:22;;;;;;;8.45;3.90;;;4.70;18.10;;;;;;20672868;28;20085;-39
2024/02/27 02:06:23;;;;;;;7.50;3.58;;;4.70;15.30;;;;;;20686643;28;20034;-39
2024/02/27 02:16:23;;;;;;;8.52;3.42;;;4.60;17.80;;;;;;20682446;28;20109;-39
2024/02/27 02:26:27;;;;;;;8.50;3.95;;;4.60;17.70;;;;;;20681501;28;20037;-40
2024/02/27 02:36:28;;;;;;;8.90;3.35;;;4.50;22.10;;;;;;20684515;28;20050;-40
2024/02/27 02:46:30;;;;;;;6.15;3.25;;;4.50;28.00;;;;;;20682188;28;20033;-39
2024/02/27 02:56:31;;;;;;;7.15;3.17;;;4.60;27.20;;;;;;20678256;28;20060;-39
2024/02/27 03:06:31;;;;;;;7.38;3.40;;;4.50;29.40;;;;;;20681418;28;20037;-39
2024/02/27 03:16:32;;;;;;;7.10;3.88;;;4.60;31.60;;;;;;20678108;28;20049;-40
2024/02/27 03:26:33;;;;;;;9.67;4.93;;;4.60;31.10;;;;;;20678718;28;20042;-39
2024/02/27 03:36:38;;;;;;;10.13;4.45;;;4.50;33.50;;;;;;20685115;28;20464;-39
2024/02/27 03:46:39;;;;;;;9.57;4.97;;;4.50;37.20;;;;;;20679953;28;20037;-39
2024/02/27 03:56:39;;;;;;;11.18;5.15;;;4.50;39.70;;;;;;20678012;28;20050;-40
2024/02/27 04:06:40;;;;;;;10.82;4.80;;;4.40;45.20;;;;;;20678681;28;20038;-39
2024/02/27 04:16:40;;;;;;;12.00;5.57;;;4.50;45.30;;;;;;20687539;28;20482;-40
2024/02/27 04:26:42;;;;;;;11.68;5.82;;;4.50;50.20;;;;;;20695559;28;20472;-40
2024/02/27 04:36:47;;;;;;;11.40;6.28;;;4.50;46.60;;;;;;20693127;28;20042;-39
2024/02/27 04:46:47;;;;;;;11.25;5.60;;;4.40;46.70;;;;;;20691172;28;20445;-39
2024/02/27 04:56:51;;;;;;;11.95;5.78;;;4.40;48.70;;;;;;20688960;28;20888;-40
2024/02/27 05:06:53;;;;;;;10.73;5.15;;;4.40;55.70;;;;;;20691605;28;20050;-39
2024/02/27 05:16:54;;;;;;;13.43;6.30;;;4.40;63.60;;;;;;20688983;28;20056;-39
2024/02/27 05:26:54;;;;;;;13.95;6.75;;;4.30;74.40;;;;;;20689274;28;20045;-39
2024/02/27 05:36:55;;;;;;;14.93;6.75;;;4.30;79.50;;;;;;20685363;28;20045;-39
2024/02/27 05:46:56;;;;;;;15.18;6.90;;;4.40;73.20;;;;;;20685183;28;20113;-39
2024/02/27 05:56:56;;;;;;;15.50;7.53;;;4.30;81.00;;;;;;20683844;28;20046;-40
2024/02/27 06:06:58;;;;;;;15.82;7.13;;;4.20;89.40;;;;;;20674707;28;20440;-40
2024/02/27 06:16:58;;;;;;;13.30;6.72;;;4.20;90.50;;;;;;20682126;28;20383;-40
2024/02/27 06:26:59;;;;;;;18.50;7.88;;;4.20;92.40;;;;;;20684633;28;20034;-40
2024/02/27 06:36:59;;;;;;;16.92;6.93;;;4.10;94.20;;;;;;20682756;28;20131;-39
2024/02/27 06:47:00;;;;;;;16.00;7.57;;;4.10;93.30;;;;;;20682479;28;20042;-40
2024/02/27 06:57:01;;;;;;;16.45;7.30;;;4.10;92.10;;;;;;20682471;28;20066;-39
2024/02/27 07:07:03;;;;;;;15.90;8.15;;;4.00;96.90;;;;;;20681451;28;20034;-39
2024/02/27 07:17:04;;;;;;;14.75;7.28;;;4.00;99.90;;;;;;20678429;28;20373;-39
2024/02/27 07:27:05;;;;;;;15.45;7.40;;;4.00;99.90;;;;;;20681749;28;20847;-38
2024/02/27 07:37:06;;;;;;;15.10;7.10;;;4.10;99.90;;;;;;20678616;28;20042;-39
2024/02/27 07:47:07;;;;;;;16.80;7.72;;;4.20;99.90;;;;;;20685411;28;20045;-39
2024/02/27 07:57:08;;;;;;;13.80;7.00;;;4.40;99.90;;;;;;20687504;28;20042;-39
2024/02/27 08:07:09;;;;;;;12.97;6.23;;;4.60;99.90;;;;;;20689686;28;20045;-40
2024/02/27 08:17:10;;;;;;;12.23;5.55;;;4.90;99.90;;;;;;20688345;28;20836;-39
2024/02/27 08:27:11;;;;;;;12.60;5.63;;;5.20;99.90;;;;;;20691131;28;20045;-39
2024/02/27 08:37:12;;;;;;;14.73;6.70;;;5.60;99.90;;;;;;20681479;28;20045;-40
2024/02/27 08:47:13;;;;;;;15.60;6.25;;;5.80;95.00;;;;;;20686497;28;20523;-40
2024/02/27 08:57:13;;;;;;;16.40;6.78;;;6.20;68.00;;;;;;20688959;28;20199;-40
2024/02/27 09:07:14;;;;;;;11.80;5.93;;;6.60;39.40;;;;;;20684068;28;20042;-40
2024/02/27 09:17:15;;;;;;;10.95;5.35;;;6.80;18.20;;;;;;20688999;28;20048;-40
2024/02/27 09:27:15;;;;;;;12.70;5.20;;;6.80;8.00;;;;;;20669138;28;20037;-40
2024/02/27 09:37:18;;;;;;;8.73;5.03;;;7.20;3.20;;;;;;20687031;28;20560;-40
2024/02/27 09:47:19;;;;;;;11.43;5.35;;;7.30;1.00;;;;;;20676025;28;20048;-39
2024/02/27 09:57:20;;;;;;;12.88;5.75;;;7.40;1.00;;;;;;20687697;28;20036;-39
2024/02/27 10:07:22;;;;;;;12.33;6.13;;;7.60;1.00;;;;;;20683861;28;20042;-39
2024/02/27 10:17:23;;;;;;;9.93;6.03;;;7.60;1.00;;;;;;20680300;28;20449;-39
2024/02/27 10:27:24;;;;;;;9.65;6.20;;;7.70;1.00;;;;;;20678846;28;20038;-39
2024/02/27 10:37:24;;;;;;;9.45;5.60;;;7.90;1.00;;;;;;20678865;28;20042;-39
2024/02/27 10:47:25;;;;;;;9.97;5.73;;;8.00;1.00;;;;;;20674311;28;20474;-39
2024/02/27 10:57:27;;;;;;;9.15;5.78;;;8.30;1.00;;;;;;20673585;28;20468;-39
2024/02/27 11:07:28;;;;;;;8.13;5.50;;;8.80;1.00;;;;;;20674501;28;20052;-39
2024/02/27 11:17:33;;;;;;;9.20;5.18;;;9.30;1.00;;;;;;20673943;28;20065;-40
2024/02/27 11:27:35;;;;;;;8.27;5.43;;;9.90;1.00;;;;;;20686544;28;20155;-40
2024/02/27 11:37:35;;;;;;;8.65;5.28;;;10.70;1.00;;;;;;20690036;28;20041;-40
2024/02/27 11:47:48;;;;;;;10.32;5.10;;;11.20;1.00;;;;;;20686937;28;20041;-40
2024/02/27 11:57:53;;;;;;;11.40;5.68;;;11.30;1.00;;;;;;20685330;28;20038;-39
2024/02/27 12:07:58;;;;;;;6.25;4.47;;;12.10;1.00;;;;;;20679542;28;20033;-40
2024/02/27 12:17:59;;;;;;;9.10;4.85;;;12.10;1.00;;;;;;20683017;28;20037;-40
2024/02/27 12:27:59;;;;;;;8.52;5.03;;;11.80;1.00;;;;;;20687948;28;20057;-40
2024/02/27 12:38:00;;;;;;;7.67;5.30;;;12.10;1.00;;;;;;20665839;28;20049;-40
2024/02/27 12:48:01;;;;;;;8.50;4.97;;;12.40;1.00;;;;;;20680795;28;20453;-40
2024/02/27 12:58:02;;;;;;;7.00;3.92;;;12.40;1.00;;;;;;20682589;28;20129;-40
2024/02/27 13:08:04;;;;;;;8.07;4.90;;;13.00;1.00;;;;;;20684259;28;20131;-40
2024/02/27 13:18:05;;;;;;;7.38;5.28;;;13.20;1.00;;;;;;20677767;28;20725;-40
2024/02/27 13:28:07;;;;;;;6.00;4.45;;;14.10;1.00;;;;;;20679886;28;20434;-40
2024/02/27 13:38:08;;;;;;;6.15;3.92;;;14.80;1.00;;;;;;20678397;28;20035;-40
2024/02/27 13:48:09;;;;;;;6.05;4.00;;;15.00;1.00;;;;;;20677415;28;20049;-40
2024/02/27 13:58:10;;;;;;;6.18;4.65;;;14.80;1.00;;;;;;20668538;28;20073;-40
2024/02/27 14:08:10;;;;;;;8.32;6.18;;;12.80;1.00;;;;;;20673172;28;20076;-40
2024/02/27 14:18:11;;;;;;;10.02;6.13;;;11.60;1.00;;;;;;20667312;28;20108;-40
2024/02/27 14:28:12;;;;;;;8.32;5.78;;;11.40;1.00;;;;;;20670785;28;20045;-40
2024/02/27 14:38:13;;;;;;;7.32;5.30;;;11.60;1.00;;;;;;20670703;28;20042;-40
2024/02/27 14:48:13;;;;;;;7.37;5.10;;;12.00;1.00;;;;;;20668862;28;20034;-40
2024/02/27 14:58:16;;;;;;;8.63;4.88;;;11.90;1.00;;;;;;20668517;28;20038;-40
2024/02/27 15:08:17;;;;;;;9.02;5.13;;;11.70;1.00;;;;;;20668193;28;20037;-39
2024/02/27 15:18:17;;;;;;;7.25;5.20;;;10.90;1.00;;;;;;20664654;28;20056;-39
2024/02/27 15:28:18;;;;;;;7.70;4.97;;;10.50;1.00;;;;;;20669410;28;20089;-39
2024/02/27 15:38:19;;;;;;;7.18;4.80;;;9.90;1.00;;;;;;20666422;28;20048;-40
2024/02/27 15:48:19;;;;;;;7.80;5.03;;;9.70;1.00;;;;;;20663576;28;20041;-39
2024/02/27 15:58:20;;;;;;;8.30;5.25;;;9.40;1.00;;;;;;20668681;28;20045;-39
2024/02/27 16:08:22;;;;;;;7.45;4.90;;;8.90;1.00;;;;;;20669877;28;20030;-40
2024/02/27 16:18:22;;;;;;;8.30;5.40;;;8.40;1.00;;;;;;20687675;28;20031;-39
2024/02/27 16:28:23;;;;;;;9.35;5.53;;;8.20;1.00;;;;;;20686639;28;20026;-39
2024/02/27 16:38:23;;;;;;;8.10;4.88;;;8.10;1.00;;;;;;20679188;28;20072;-39
2024/02/27 16:48:24;;;;;;;10.40;5.90;;;8.00;1.00;;;;;;20684588;28;20482;-40
2024/02/27 16:58:24;;;;;;;11.10;5.93;;;7.80;1.00;;;;;;20685069;28;20076;-39
2024/02/27 17:08:25;;;;;;;9.75;5.78;;;7.60;1.00;;;;;;20683629;28;20058;-40
2024/02/27 17:18:26;;;;;;;10.20;5.72;;;7.30;1.00;;;;;;20668678;28;20088;-39
2024/02/27 17:28:26;;;;;;;8.50;5.70;;;6.90;1.00;;;;;;20678339;28;20044;-39
2024/02/27 17:38:27;;;;;;;10.38;5.80;;;6.70;1.00;;;;;;20682678;28;20041;-39
2024/02/27 17:48:28;;;;;;;10.13;6.22;;;6.60;1.00;;;;;;20681356;28;20565;-39
2024/02/27 17:58:28;;;;;;;10.20;6.57;;;6.40;1.00;;;;;;20676712;28;20042;-39
2024/02/27 18:08:29;;;;;;;12.00;6.45;;;6.20;1.00;;;;;;20677072;28;20074;-39
2024/02/27 18:18:30;;;;;;;11.87;6.60;;;6.20;1.00;;;;;;20679370;28;20038;-39
2024/02/27 18:28:30;;;;;;;11.60;7.97;;;6.20;1.00;;;;;;20667516;28;20165;-40
2024/02/27 18:38:31;;;;;;;13.45;8.10;;;6.20;1.00;;;;;;20667908;28;20576;-40
2024/02/27 18:48:32;;;;;;;13.00;8.32;;;6.00;1.00;;;;;;20671688;28;20560;-39
2024/02/27 18:58:34;;;;;;;14.32;8.85;;;6.10;1.00;;;;;;20663610;28;20482;-41
2024/02/27 19:08:34;;;;;;;16.63;10.27;;;6.20;1.00;;;;;;20674136;28;20620;-40
2024/02/27 19:18:36;;;;;;;26.02;14.43;;;6.00;1.00;;;;;;20671270;28;20030;-40
2024/02/27 19:28:40;;;;;;;19.73;10.75;;;5.90;2.70;;;;;;20673411;28;20042;-41
2024/02/27 19:38:41;;;;;;;18.95;11.35;;;5.80;5.60;;;;;;20627077;28;1278133;-40
2024/02/27 19:48:42;;;;;;;17.83;10.27;;;5.90;8.00;;;;;;20678145;28;20088;-40
2024/02/27 19:58:43;;;;;;;18.77;11.18;;;6.00;6.50;;;;;;20631654;28;20452;-40
2024/02/27 20:08:45;;;;;;;21.58;11.20;;;5.80;7.00;;;;;;20672864;28;20121;-40
2024/02/27 20:18:46;;;;;;;16.80;10.73;;;5.60;9.20;;;;;;20684490;28;20464;-40
2024/02/27 20:28:54;;;;;;;20.30;12.05;;;5.60;7.90;;;;;;20686242;28;20042;-40
2024/02/27 20:38:55;;;;;;;19.10;11.85;;;5.30;11.20;;;;;;20680016;28;20251;-40
2024/02/27 20:48:56;;;;;;;22.73;12.57;;;5.20;13.70;;;;;;20679379;28;20077;-40
2024/02/27 20:58:57;;;;;;;17.15;10.15;;;5.10;12.70;;;;;;20677615;28;20462;-39
2024/02/27 21:08:58;;;;;;;15.68;9.68;;;5.00;12.10;;;;;;20678757;28;20125;-39
2024/02/27 21:18:59;;;;;;;17.88;8.73;;;4.90;13.90;;;;;;20675701;28;20034;-39
2024/02/27 21:28:59;;;;;;;19.63;9.48;;;4.70;13.00;;;;;;20662999;28;20436;-39
2024/02/27 21:39:00;;;;;;;21.13;9.73;;;4.70;15.60;;;;;;20677189;28;20421;-39
2024/02/27 21:49:03;;;;;;;14.67;9.60;;;4.60;19.60;;;;;;20683781;28;20125;-40
2024/02/27 21:59:05;;;;;;;14.27;9.13;;;4.60;21.80;;;;;;20680765;28;20458;-39
2024/02/27 22:09:09;;;;;;;16.42;9.68;;;4.70;26.50;;;;;;20676399;28;20030;-39
2024/02/27 22:19:10;;;;;;;13.80;8.95;;;4.50;35.50;;;;;;20675493;28;20584;-39
2024/02/27 22:29:11;;;;;;;12.80;8.03;;;4.70;46.10;;;;;;20678309;28;20521;-39
2024/02/27 22:39:11;;;;;;;14.95;8.85;;;4.70;51.60;;;;;;20666114;28;20465;-39
2024/02/27 22:49:12;;;;;;;13.15;8.38;;;4.80;57.60;;;;;;20676116;28;20045;-39
2024/02/27 22:59:12;;;;;;;13.23;8.50;;;4.90;43.40;;;;;;20681848;28;20041;-39
2024/02/27 23:09:13;;;;;;;12.77;8.50;;;5.00;42.90;;;;;;20675628;28;20103;-40
2024/02/27 23:19:14;;;;;;;12.27;8.47;;;5.00;37.10;;;;;;20674986;28;20041;-39
2024/02/27 23:29:14;;;;;;;15.75;8.55;;;5.10;30.20;;;;;;20678905;28;20489;-39
2024/02/27 23:39:15;;;;;;;11.88;8.13;;;5.20;28.90;;;;;;20672695;28;20045;-39
2024/02/27 23:49:16;;;;;;;14.23;9.33;;;5.10;21.40;;;;;;20673254;28;20049;-39
2024/02/27 23:59:17;;;;;;;14.10;8.90;;;5.00;19.70;;;;;;20671903;28;20445;-39
